sensor_id;sensor_type;location;lat;lon;timestamp;P1;durP1;ratioP1;P2;durP2;ratioP2
56770;SDS011;42641;59.794;17.616;2023-10-19T00:01:18;3.33;;;1.97;;
56770;SDS011;42641;59.794;17.616;2023-10-19T00:03:45;2.67;;;1.70;;
56770;SDS011;42641;59.794;17.616;2023-10-19T00:06:11;2.17;;;1.60;;
56770;SDS011;42641;59.794;17.616;2023-10-19T00:08:37;2.27;;;1.60;;
56770;SDS011;42641;59.794;17.616;2023-10-19T00:11:07;2.93;;;1.50;;
56770;SDS011;42641;59.794;17.616;2023-10-19T00:13:38;2.93;;;1.80;;
56770;SDS011;42641;59.794;17.616;2023-10-19T00:16:06;3.13;;;1.73;;
56770;SDS011;42641;59.794;17.616;2023-10-19T00:18:38;2.07;;;1.50;;
56770;SDS011;42641;59.794;17.616;2023-10-19T00:21:08;2.80;;;1.80;;
56770;SDS011;42641;59.794;17.616;2023-10-19T00:23:51;2.47;;;1.70;;
56770;SDS011;42641;59.794;17.616;2023-10-19T00:26:22;1.67;;;1.40;;
56770;SDS011;42641;59.794;17.616;2023-10-19T00:28:57;1.57;;;1.47;;
56770;SDS011;42641;59.794;17.616;2023-10-19T00:31:25;4.27;;;1.60;;
56770;SDS011;42641;59.794;17.616;2023-10-19T00:33:53;2.47;;;1.23;;
56770;SDS011;42641;59.794;17.616;2023-10-19T00:36:21;3.17;;;1.40;;
56770;SDS011;42641;59.794;17.616;2023-10-19T00:38:49;1.40;;;1.30;;
56770;SDS011;42641;59.794;17.616;2023-10-19T00:41:23;1.50;;;1.30;;
56770;SDS011;42641;59.794;17.616;2023-10-19T00:43:55;3.30;;;1.53;;
56770;SDS011;42641;59.794;17.616;2023-10-19T00:46:38;2.17;;;1.27;;
56770;SDS011;42641;59.794;17.616;2023-10-19T00:49:08;2.40;;;1.53;;
56770;SDS011;42641;59.794;17.616;2023-10-19T00:51:45;2.03;;;1.37;;
56770;SDS011;42641;59.794;17.616;2023-10-19T00:54:25;1.33;;;1.23;;
56770;SDS011;42641;59.794;17.616;2023-10-19T00:57:23;2.70;;;1.60;;
56770;SDS011;42641;59.794;17.616;2023-10-19T01:00:01;1.90;;;1.67;;
56770;SDS011;42641;59.794;17.616;2023-10-19T01:02:38;3.40;;;1.50;;
56770;SDS011;42641;59.794;17.616;2023-10-19T01:05:09;2.20;;;1.20;;
56770;SDS011;42641;59.794;17.616;2023-10-19T01:07:39;2.17;;;1.30;;
56770;SDS011;42641;59.794;17.616;2023-10-19T01:10:10;1.27;;;1.17;;
56770;SDS011;42641;59.794;17.616;2023-10-19T01:12:46;1.67;;;1.30;;
56770;SDS011;42641;59.794;17.616;2023-10-19T01:15:13;2.27;;;1.17;;
56770;SDS011;42641;59.794;17.616;2023-10-19T01:17:56;3.90;;;1.20;;
56770;SDS011;42641;59.794;17.616;2023-10-19T01:20:29;1.30;;;1.20;;
56770;SDS011;42641;59.794;17.616;2023-10-19T01:23:06;1.00;;;0.83;;
56770;SDS011;42641;59.794;17.616;2023-10-19T01:28:20;1.33;;;0.73;;
56770;SDS011;42641;59.794;17.616;2023-10-19T01:30:51;1.20;;;0.90;;
56770;SDS011;42641;59.794;17.616;2023-10-19T01:33:18;4.20;;;1.13;;
56770;SDS011;42641;59.794;17.616;2023-10-19T01:35:45;2.50;;;1.00;;
56770;SDS011;42641;59.794;17.616;2023-10-19T01:38:30;1.13;;;0.93;;
56770;SDS011;42641;59.794;17.616;2023-10-19T01:40:57;1.37;;;1.17;;
56770;SDS011;42641;59.794;17.616;2023-10-19T01:43:31;2.37;;;1.00;;
56770;SDS011;42641;59.794;17.616;2023-10-19T01:46:01;2.37;;;1.30;;
56770;SDS011;42641;59.794;17.616;2023-10-19T01:48:37;1.50;;;1.20;;
56770;SDS011;42641;59.794;17.616;2023-10-19T01:51:07;1.70;;;1.30;;
56770;SDS011;42641;59.794;17.616;2023-10-19T01:53:38;1.13;;;1.00;;
56770;SDS011;42641;59.794;17.616;2023-10-19T01:56:16;2.97;;;1.00;;
56770;SDS011;42641;59.794;17.616;2023-10-19T01:58:44;2.20;;;1.10;;
56770;SDS011;42641;59.794;17.616;2023-10-19T02:01:16;1.23;;;1.00;;
56770;SDS011;42641;59.794;17.616;2023-10-19T02:03:47;2.27;;;1.10;;
56770;SDS011;42641;59.794;17.616;2023-10-19T02:06:20;1.30;;;1.20;;
56770;SDS011;42641;59.794;17.616;2023-10-19T02:08:50;1.67;;;1.20;;
56770;SDS011;42641;59.794;17.616;2023-10-19T02:11:26;2.70;;;1.30;;
56770;SDS011;42641;59.794;17.616;2023-10-19T02:13:55;2.23;;;1.10;;
56770;SDS011;42641;59.794;17.616;2023-10-19T02:16:26;1.20;;;1.10;;
56770;SDS011;42641;59.794;17.616;2023-10-19T02:18:55;1.67;;;1.20;;
56770;SDS011;42641;59.794;17.616;2023-10-19T02:21:22;2.60;;;1.33;;
56770;SDS011;42641;59.794;17.616;2023-10-19T02:23:49;3.10;;;1.40;;
56770;SDS011;42641;59.794;17.616;2023-10-19T02:26:19;2.87;;;1.20;;
56770;SDS011;42641;59.794;17.616;2023-10-19T02:28:48;2.13;;;1.27;;
56770;SDS011;42641;59.794;17.616;2023-10-19T02:31:22;1.67;;;1.30;;
56770;SDS011;42641;59.794;17.616;2023-10-19T02:33:50;2.10;;;1.33;;
56770;SDS011;42641;59.794;17.616;2023-10-19T02:36:18;1.93;;;1.40;;
56770;SDS011;42641;59.794;17.616;2023-10-19T02:38:46;3.00;;;1.60;;
56770;SDS011;42641;59.794;17.616;2023-10-19T02:41:17;1.90;;;1.67;;
56770;SDS011;42641;59.794;17.616;2023-10-19T02:43:46;2.97;;;1.87;;
56770;SDS011;42641;59.794;17.616;2023-10-19T02:46:17;4.20;;;1.90;;
56770;SDS011;42641;59.794;17.616;2023-10-19T02:48:43;2.47;;;1.80;;
56770;SDS011;42641;59.794;17.616;2023-10-19T02:51:11;6.30;;;2.07;;
56770;SDS011;42641;59.794;17.616;2023-10-19T02:53:41;3.00;;;2.00;;
56770;SDS011;42641;59.794;17.616;2023-10-19T02:56:15;3.67;;;2.30;;
56770;SDS011;42641;59.794;17.616;2023-10-19T02:58:49;3.03;;;2.10;;
56770;SDS011;42641;59.794;17.616;2023-10-19T03:01:17;4.70;;;2.23;;
56770;SDS011;42641;59.794;17.616;2023-10-19T03:03:50;3.53;;;2.10;;
56770;SDS011;42641;59.794;17.616;2023-10-19T03:06:23;4.37;;;2.20;;
56770;SDS011;42641;59.794;17.616;2023-10-19T03:08:49;4.13;;;2.33;;
56770;SDS011;42641;59.794;17.616;2023-10-19T03:11:23;4.03;;;2.03;;
56770;SDS011;42641;59.794;17.616;2023-10-19T03:13:53;2.10;;;1.90;;
56770;SDS011;42641;59.794;17.616;2023-10-19T03:16:21;2.97;;;2.10;;
56770;SDS011;42641;59.794;17.616;2023-10-19T03:18:47;5.13;;;2.13;;
56770;SDS011;42641;59.794;17.616;2023-10-19T03:21:14;3.00;;;2.03;;
56770;SDS011;42641;59.794;17.616;2023-10-19T03:23:42;2.20;;;1.77;;
56770;SDS011;42641;59.794;17.616;2023-10-19T03:26:08;2.03;;;1.70;;
56770;SDS011;42641;59.794;17.616;2023-10-19T03:28:49;3.13;;;1.90;;
56770;SDS011;42641;59.794;17.616;2023-10-19T03:31:23;1.77;;;1.67;;
56770;SDS011;42641;59.794;17.616;2023-10-19T03:33:53;2.67;;;1.73;;
56770;SDS011;42641;59.794;17.616;2023-10-19T03:36:23;4.70;;;1.80;;
56770;SDS011;42641;59.794;17.616;2023-10-19T03:38:50;2.33;;;1.93;;
56770;SDS011;42641;59.794;17.616;2023-10-19T03:41:19;2.57;;;1.67;;
56770;SDS011;42641;59.794;17.616;2023-10-19T03:43:55;4.33;;;1.90;;
56770;SDS011;42641;59.794;17.616;2023-10-19T03:46:24;2.30;;;1.60;;
56770;SDS011;42641;59.794;17.616;2023-10-19T03:49:03;2.93;;;1.80;;
56770;SDS011;42641;59.794;17.616;2023-10-19T03:51:39;2.67;;;1.47;;
56770;SDS011;42641;59.794;17.616;2023-10-19T03:54:06;2.70;;;1.67;;
56770;SDS011;42641;59.794;17.616;2023-10-19T03:56:49;2.20;;;1.77;;
56770;SDS011;42641;59.794;17.616;2023-10-19T03:59:16;2.53;;;1.80;;
56770;SDS011;42641;59.794;17.616;2023-10-19T04:01:43;3.17;;;1.50;;
56770;SDS011;42641;59.794;17.616;2023-10-19T04:04:10;3.20;;;1.80;;
56770;SDS011;42641;59.794;17.616;2023-10-19T04:06:37;5.20;;;1.77;;
56770;SDS011;42641;59.794;17.616;2023-10-19T04:09:03;2.67;;;1.60;;
56770;SDS011;42641;59.794;17.616;2023-10-19T04:11:34;2.20;;;1.40;;
56770;SDS011;42641;59.794;17.616;2023-10-19T04:14:17;3.33;;;2.00;;
56770;SDS011;42641;59.794;17.616;2023-10-19T04:16:44;3.63;;;1.80;;
56770;SDS011;42641;59.794;17.616;2023-10-19T04:19:11;2.27;;;1.73;;
56770;SDS011;42641;59.794;17.616;2023-10-19T04:21:38;4.00;;;1.97;;
56770;SDS011;42641;59.794;17.616;2023-10-19T04:24:05;2.27;;;2.00;;
56770;SDS011;42641;59.794;17.616;2023-10-19T04:26:35;5.33;;;1.90;;
56770;SDS011;42641;59.794;17.616;2023-10-19T04:29:05;2.93;;;1.80;;
56770;SDS011;42641;59.794;17.616;2023-10-19T04:31:36;2.77;;;2.00;;
56770;SDS011;42641;59.794;17.616;2023-10-19T04:34:15;3.40;;;2.00;;
56770;SDS011;42641;59.794;17.616;2023-10-19T04:36:49;3.17;;;1.90;;
56770;SDS011;42641;59.794;17.616;2023-10-19T04:39:16;2.53;;;1.87;;
56770;SDS011;42641;59.794;17.616;2023-10-19T04:41:47;3.40;;;2.40;;
56770;SDS011;42641;59.794;17.616;2023-10-19T04:44:15;3.17;;;2.37;;
56770;SDS011;42641;59.794;17.616;2023-10-19T04:46:42;4.60;;;2.53;;
56770;SDS011;42641;59.794;17.616;2023-10-19T04:49:08;3.07;;;2.10;;
56770;SDS011;42641;59.794;17.616;2023-10-19T04:51:35;3.17;;;2.37;;
56770;SDS011;42641;59.794;17.616;2023-10-19T04:54:05;3.60;;;2.13;;
56770;SDS011;42641;59.794;17.616;2023-10-19T04:56:35;3.43;;;1.93;;
56770;SDS011;42641;59.794;17.616;2023-10-19T04:59:02;2.47;;;2.13;;
56770;SDS011;42641;59.794;17.616;2023-10-19T05:01:29;3.97;;;2.23;;
56770;SDS011;42641;59.794;17.616;2023-10-19T05:03:56;4.73;;;2.30;;
56770;SDS011;42641;59.794;17.616;2023-10-19T05:06:23;4.90;;;2.43;;
56770;SDS011;42641;59.794;17.616;2023-10-19T05:08:50;3.33;;;2.40;;
56770;SDS011;42641;59.794;17.616;2023-10-19T05:11:17;3.40;;;2.43;;
56770;SDS011;42641;59.794;17.616;2023-10-19T05:13:44;2.80;;;2.13;;
56770;SDS011;42641;59.794;17.616;2023-10-19T05:16:11;3.07;;;2.30;;
56770;SDS011;42641;59.794;17.616;2023-10-19T05:18:37;3.43;;;2.10;;
56770;SDS011;42641;59.794;17.616;2023-10-19T05:21:04;3.60;;;2.23;;
56770;SDS011;42641;59.794;17.616;2023-10-19T05:23:31;3.60;;;2.20;;
56770;SDS011;42641;59.794;17.616;2023-10-19T05:26:02;3.60;;;2.23;;
56770;SDS011;42641;59.794;17.616;2023-10-19T05:28:30;3.83;;;1.90;;
56770;SDS011;42641;59.794;17.616;2023-10-19T05:30:57;2.53;;;1.80;;
56770;SDS011;42641;59.794;17.616;2023-10-19T05:33:24;4.97;;;2.00;;
56770;SDS011;42641;59.794;17.616;2023-10-19T05:35:53;2.17;;;1.97;;
56770;SDS011;42641;59.794;17.616;2023-10-19T05:38:19;1.90;;;1.50;;
56770;SDS011;42641;59.794;17.616;2023-10-19T05:40:47;3.20;;;1.90;;
56770;SDS011;42641;59.794;17.616;2023-10-19T05:43:15;1.93;;;1.70;;
56770;SDS011;42641;59.794;17.616;2023-10-19T05:45:43;2.40;;;1.53;;
56770;SDS011;42641;59.794;17.616;2023-10-19T05:48:09;3.90;;;2.17;;
56770;SDS011;42641;59.794;17.616;2023-10-19T05:50:37;2.93;;;1.83;;
56770;SDS011;42641;59.794;17.616;2023-10-19T05:53:03;2.00;;;1.80;;
56770;SDS011;42641;59.794;17.616;2023-10-19T05:55:31;3.47;;;1.97;;
56770;SDS011;42641;59.794;17.616;2023-10-19T05:57:58;3.13;;;2.27;;
56770;SDS011;42641;59.794;17.616;2023-10-19T06:00:25;3.73;;;2.30;;
56770;SDS011;42641;59.794;17.616;2023-10-19T06:02:52;3.73;;;2.23;;
56770;SDS011;42641;59.794;17.616;2023-10-19T06:05:19;4.20;;;2.33;;
56770;SDS011;42641;59.794;17.616;2023-10-19T06:07:46;3.40;;;2.57;;
56770;SDS011;42641;59.794;17.616;2023-10-19T06:10:18;3.83;;;2.60;;
56770;SDS011;42641;59.794;17.616;2023-10-19T06:12:47;4.90;;;2.50;;
56770;SDS011;42641;59.794;17.616;2023-10-19T06:15:16;3.30;;;2.20;;
56770;SDS011;42641;59.794;17.616;2023-10-19T06:17:44;2.30;;;1.90;;
56770;SDS011;42641;59.794;17.616;2023-10-19T06:20:11;4.00;;;1.90;;
56770;SDS011;42641;59.794;17.616;2023-10-19T06:22:50;2.50;;;2.30;;
56770;SDS011;42641;59.794;17.616;2023-10-19T06:25:18;4.53;;;2.40;;
56770;SDS011;42641;59.794;17.616;2023-10-19T06:27:47;3.33;;;2.13;;
56770;SDS011;42641;59.794;17.616;2023-10-19T06:30:14;3.00;;;2.27;;
56770;SDS011;42641;59.794;17.616;2023-10-19T06:32:48;4.67;;;2.30;;
56770;SDS011;42641;59.794;17.616;2023-10-19T06:35:19;4.23;;;2.67;;
56770;SDS011;42641;59.794;17.616;2023-10-19T06:37:47;4.10;;;2.60;;
56770;SDS011;42641;59.794;17.616;2023-10-19T06:40:14;3.10;;;2.10;;
56770;SDS011;42641;59.794;17.616;2023-10-19T06:42:43;6.03;;;2.30;;
56770;SDS011;42641;59.794;17.616;2023-10-19T06:45:13;3.40;;;2.10;;
56770;SDS011;42641;59.794;17.616;2023-10-19T06:47:40;2.43;;;1.90;;
56770;SDS011;42641;59.794;17.616;2023-10-19T06:50:12;2.83;;;1.80;;
56770;SDS011;42641;59.794;17.616;2023-10-19T06:52:41;2.27;;;1.63;;
56770;SDS011;42641;59.794;17.616;2023-10-19T06:55:09;2.47;;;1.80;;
56770;SDS011;42641;59.794;17.616;2023-10-19T06:57:48;3.27;;;1.87;;
56770;SDS011;42641;59.794;17.616;2023-10-19T07:00:17;1.67;;;1.53;;
56770;SDS011;42641;59.794;17.616;2023-10-19T07:02:45;1.80;;;1.60;;
56770;SDS011;42641;59.794;17.616;2023-10-19T07:05:13;1.93;;;1.57;;
56770;SDS011;42641;59.794;17.616;2023-10-19T07:07:44;1.63;;;1.50;;
56770;SDS011;42641;59.794;17.616;2023-10-19T07:10:11;2.60;;;1.77;;
56770;SDS011;42641;59.794;17.616;2023-10-19T07:12:39;2.60;;;1.30;;
56770;SDS011;42641;59.794;17.616;2023-10-19T07:15:08;2.43;;;1.87;;
56770;SDS011;42641;59.794;17.616;2023-10-19T07:17:43;2.07;;;1.70;;
56770;SDS011;42641;59.794;17.616;2023-10-19T07:20:11;2.23;;;1.30;;
56770;SDS011;42641;59.794;17.616;2023-10-19T07:22:57;2.90;;;1.50;;
56770;SDS011;42641;59.794;17.616;2023-10-19T07:25:44;1.97;;;1.67;;
56770;SDS011;42641;59.794;17.616;2023-10-19T07:28:14;1.43;;;1.33;;
56770;SDS011;42641;59.794;17.616;2023-10-19T07:30:42;3.57;;;1.57;;
56770;SDS011;42641;59.794;17.616;2023-10-19T07:33:09;1.87;;;1.57;;
56770;SDS011;42641;59.794;17.616;2023-10-19T07:35:37;1.67;;;1.50;;
56770;SDS011;42641;59.794;17.616;2023-10-19T07:38:04;2.87;;;1.90;;
56770;SDS011;42641;59.794;17.616;2023-10-19T07:40:33;2.07;;;1.37;;
56770;SDS011;42641;59.794;17.616;2023-10-19T07:43:00;1.53;;;1.40;;
56770;SDS011;42641;59.794;17.616;2023-10-19T07:45:27;1.73;;;1.33;;
56770;SDS011;42641;59.794;17.616;2023-10-19T07:47:54;2.23;;;1.30;;
56770;SDS011;42641;59.794;17.616;2023-10-19T07:50:21;2.60;;;1.40;;
56770;SDS011;42641;59.794;17.616;2023-10-19T07:52:51;2.13;;;1.40;;
56770;SDS011;42641;59.794;17.616;2023-10-19T07:55:20;1.40;;;1.30;;
56770;SDS011;42641;59.794;17.616;2023-10-19T07:57:50;2.07;;;1.10;;
56770;SDS011;42641;59.794;17.616;2023-10-19T08:00:19;2.10;;;1.40;;
56770;SDS011;42641;59.794;17.616;2023-10-19T08:02:46;1.63;;;1.17;;
56770;SDS011;42641;59.794;17.616;2023-10-19T08:05:13;2.67;;;1.10;;
56770;SDS011;42641;59.794;17.616;2023-10-19T08:07:40;0.80;;;0.80;;
56770;SDS011;42641;59.794;17.616;2023-10-19T08:10:10;0.90;;;0.90;;
56770;SDS011;42641;59.794;17.616;2023-10-19T08:12:38;1.60;;;1.03;;
56770;SDS011;42641;59.794;17.616;2023-10-19T08:15:09;1.20;;;0.93;;
56770;SDS011;42641;59.794;17.616;2023-10-19T08:17:41;1.97;;;1.30;;
56770;SDS011;42641;59.794;17.616;2023-10-19T08:20:09;1.23;;;0.93;;
56770;SDS011;42641;59.794;17.616;2023-10-19T08:22:52;1.50;;;1.10;;
56770;SDS011;42641;59.794;17.616;2023-10-19T08:25:23;1.60;;;1.00;;
56770;SDS011;42641;59.794;17.616;2023-10-19T08:27:53;1.10;;;0.90;;
56770;SDS011;42641;59.794;17.616;2023-10-19T08:30:22;1.30;;;1.20;;
56770;SDS011;42641;59.794;17.616;2023-10-19T08:32:50;2.17;;;1.00;;
56770;SDS011;42641;59.794;17.616;2023-10-19T08:35:18;1.27;;;0.90;;
56770;SDS011;42641;59.794;17.616;2023-10-19T08:37:55;0.90;;;0.90;;
56770;SDS011;42641;59.794;17.616;2023-10-19T08:40:26;0.67;;;0.67;;
56770;SDS011;42641;59.794;17.616;2023-10-19T08:42:53;1.37;;;1.10;;
56770;SDS011;42641;59.794;17.616;2023-10-19T08:45:20;0.80;;;0.80;;
56770;SDS011;42641;59.794;17.616;2023-10-19T08:47:57;1.07;;;0.90;;
56770;SDS011;42641;59.794;17.616;2023-10-19T08:50:27;0.60;;;0.60;;
56770;SDS011;42641;59.794;17.616;2023-10-19T08:52:56;2.87;;;1.03;;
56770;SDS011;42641;59.794;17.616;2023-10-19T08:55:34;1.00;;;0.93;;
56770;SDS011;42641;59.794;17.616;2023-10-19T08:58:01;2.60;;;0.97;;
56770;SDS011;42641;59.794;17.616;2023-10-19T09:00:37;0.73;;;0.73;;
56770;SDS011;42641;59.794;17.616;2023-10-19T09:03:19;1.10;;;1.00;;
56770;SDS011;42641;59.794;17.616;2023-10-19T09:05:47;1.43;;;0.90;;
56770;SDS011;42641;59.794;17.616;2023-10-19T09:08:17;3.23;;;0.90;;
56770;SDS011;42641;59.794;17.616;2023-10-19T09:10:46;4.67;;;1.10;;
56770;SDS011;42641;59.794;17.616;2023-10-19T09:13:13;2.40;;;0.87;;
56770;SDS011;42641;59.794;17.616;2023-10-19T09:15:44;1.70;;;0.87;;
56770;SDS011;42641;59.794;17.616;2023-10-19T09:18:14;0.97;;;0.97;;
56770;SDS011;42641;59.794;17.616;2023-10-19T09:20:49;1.47;;;0.70;;
56770;SDS011;42641;59.794;17.616;2023-10-19T09:25:47;1.33;;;1.00;;
56770;SDS011;42641;59.794;17.616;2023-10-19T09:28:15;1.00;;;1.00;;
56770;SDS011;42641;59.794;17.616;2023-10-19T09:30:41;0.73;;;0.73;;
56770;SDS011;42641;59.794;17.616;2023-10-19T09:33:09;1.43;;;0.97;;
56770;SDS011;42641;59.794;17.616;2023-10-19T09:35:35;1.90;;;0.87;;
56770;SDS011;42641;59.794;17.616;2023-10-19T09:38:04;1.20;;;1.00;;
56770;SDS011;42641;59.794;17.616;2023-10-19T09:40:32;1.10;;;1.00;;
56770;SDS011;42641;59.794;17.616;2023-10-19T09:43:04;1.13;;;1.03;;
56770;SDS011;42641;59.794;17.616;2023-10-19T09:45:39;1.03;;;0.93;;
56770;SDS011;42641;59.794;17.616;2023-10-19T09:48:12;1.23;;;1.10;;
56770;SDS011;42641;59.794;17.616;2023-10-19T09:50:44;2.53;;;1.37;;
56770;SDS011;42641;59.794;17.616;2023-10-19T09:53:27;1.27;;;1.17;;
56770;SDS011;42641;59.794;17.616;2023-10-19T09:55:58;3.13;;;1.20;;
56770;SDS011;42641;59.794;17.616;2023-10-19T09:58:39;1.20;;;1.10;;
56770;SDS011;42641;59.794;17.616;2023-10-19T10:01:15;1.10;;;1.00;;
56770;SDS011;42641;59.794;17.616;2023-10-19T10:03:48;1.10;;;1.07;;
56770;SDS011;42641;59.794;17.616;2023-10-19T10:06:29;3.57;;;1.20;;
56770;SDS011;42641;59.794;17.616;2023-10-19T10:09:19;2.07;;;1.10;;
56770;SDS011;42641;59.794;17.616;2023-10-19T10:11:53;0.90;;;0.90;;
56770;SDS011;42641;59.794;17.616;2023-10-19T10:14:21;2.63;;;1.03;;
56770;SDS011;42641;59.794;17.616;2023-10-19T10:17:01;1.43;;;1.00;;
56770;SDS011;42641;59.794;17.616;2023-10-19T10:19:28;6.33;;;1.53;;
56770;SDS011;42641;59.794;17.616;2023-10-19T10:22:10;1.67;;;1.40;;
56770;SDS011;42641;59.794;17.616;2023-10-19T10:24:46;1.40;;;1.30;;
56770;SDS011;42641;59.794;17.616;2023-10-19T10:27:19;4.23;;;1.37;;
56770;SDS011;42641;59.794;17.616;2023-10-19T10:29:55;1.10;;;1.00;;
56770;SDS011;42641;59.794;17.616;2023-10-19T10:35:10;1.83;;;1.27;;
56770;SDS011;42641;59.794;17.616;2023-10-19T10:37:56;1.37;;;1.20;;
56770;SDS011;42641;59.794;17.616;2023-10-19T10:40:24;3.63;;;1.83;;
56770;SDS011;42641;59.794;17.616;2023-10-19T10:43:04;2.67;;;1.43;;
56770;SDS011;42641;59.794;17.616;2023-10-19T10:45:31;1.30;;;1.20;;
56770;SDS011;42641;59.794;17.616;2023-10-19T10:47:57;2.50;;;1.33;;
56770;SDS011;42641;59.794;17.616;2023-10-19T10:50:26;1.20;;;1.10;;
56770;SDS011;42641;59.794;17.616;2023-10-19T10:52:56;1.30;;;1.20;;
56770;SDS011;42641;59.794;17.616;2023-10-19T10:55:25;1.40;;;1.30;;
56770;SDS011;42641;59.794;17.616;2023-10-19T10:57:52;1.37;;;1.27;;
56770;SDS011;42641;59.794;17.616;2023-10-19T11:00:20;1.73;;;1.37;;
56770;SDS011;42641;59.794;17.616;2023-10-19T11:03:01;1.97;;;1.27;;
56770;SDS011;42641;59.794;17.616;2023-10-19T11:05:35;1.30;;;1.20;;
56770;SDS011;42641;59.794;17.616;2023-10-19T11:10:40;1.70;;;1.60;;
56770;SDS011;42641;59.794;17.616;2023-10-19T11:13:09;2.63;;;1.47;;
56770;SDS011;42641;59.794;17.616;2023-10-19T11:15:37;2.43;;;1.40;;
56770;SDS011;42641;59.794;17.616;2023-10-19T11:18:04;1.60;;;1.40;;
56770;SDS011;42641;59.794;17.616;2023-10-19T11:20:35;1.97;;;1.40;;
56770;SDS011;42641;59.794;17.616;2023-10-19T11:23:01;2.33;;;1.50;;
56770;SDS011;42641;59.794;17.616;2023-10-19T11:25:29;2.47;;;1.47;;
56770;SDS011;42641;59.794;17.616;2023-10-19T11:27:58;1.77;;;1.60;;
56770;SDS011;42641;59.794;17.616;2023-10-19T11:30:30;1.80;;;1.40;;
56770;SDS011;42641;59.794;17.616;2023-10-19T11:32:58;2.33;;;1.70;;
56770;SDS011;42641;59.794;17.616;2023-10-19T11:35:28;1.50;;;1.40;;
56770;SDS011;42641;59.794;17.616;2023-10-19T11:37:57;1.37;;;1.27;;
56770;SDS011;42641;59.794;17.616;2023-10-19T11:40:26;2.13;;;1.40;;
56770;SDS011;42641;59.794;17.616;2023-10-19T11:42:53;2.87;;;1.50;;
56770;SDS011;42641;59.794;17.616;2023-10-19T11:45:40;1.47;;;1.27;;
56770;SDS011;42641;59.794;17.616;2023-10-19T11:48:07;1.50;;;1.30;;
56770;SDS011;42641;59.794;17.616;2023-10-19T11:50:34;3.40;;;1.60;;
56770;SDS011;42641;59.794;17.616;2023-10-19T11:53:01;2.97;;;1.70;;
56770;SDS011;42641;59.794;17.616;2023-10-19T11:55:29;2.60;;;1.70;;
56770;SDS011;42641;59.794;17.616;2023-10-19T11:57:55;2.13;;;1.60;;
56770;SDS011;42641;59.794;17.616;2023-10-19T12:00:21;2.60;;;1.50;;
56770;SDS011;42641;59.794;17.616;2023-10-19T12:02:50;2.33;;;1.50;;
56770;SDS011;42641;59.794;17.616;2023-10-19T12:05:17;1.93;;;1.53;;
56770;SDS011;42641;59.794;17.616;2023-10-19T12:07:44;2.83;;;1.60;;
56770;SDS011;42641;59.794;17.616;2023-10-19T12:10:11;1.77;;;1.40;;
56770;SDS011;42641;59.794;17.616;2023-10-19T12:12:38;11.03;;;1.70;;
56770;SDS011;42641;59.794;17.616;2023-10-19T12:15:04;1.57;;;1.47;;
56770;SDS011;42641;59.794;17.616;2023-10-19T12:17:32;1.63;;;1.30;;
56770;SDS011;42641;59.794;17.616;2023-10-19T12:19:59;3.40;;;1.50;;
56770;SDS011;42641;59.794;17.616;2023-10-19T12:22:25;1.60;;;1.50;;
56770;SDS011;42641;59.794;17.616;2023-10-19T12:24:58;1.60;;;1.50;;
56770;SDS011;42641;59.794;17.616;2023-10-19T12:27:25;3.00;;;1.80;;
56770;SDS011;42641;59.794;17.616;2023-10-19T12:29:51;1.47;;;1.37;;
56770;SDS011;42641;59.794;17.616;2023-10-19T12:32:21;1.87;;;1.30;;
56770;SDS011;42641;59.794;17.616;2023-10-19T12:34:48;2.20;;;1.27;;
56770;SDS011;42641;59.794;17.616;2023-10-19T12:37:23;1.10;;;1.00;;
56770;SDS011;42641;59.794;17.616;2023-10-19T12:39:53;3.50;;;1.53;;
56770;SDS011;42641;59.794;17.616;2023-10-19T12:42:20;1.77;;;1.47;;
56770;SDS011;42641;59.794;17.616;2023-10-19T12:44:48;2.10;;;1.40;;
56770;SDS011;42641;59.794;17.616;2023-10-19T12:47:15;1.87;;;1.50;;
56770;SDS011;42641;59.794;17.616;2023-10-19T12:49:43;4.07;;;1.50;;
56770;SDS011;42641;59.794;17.616;2023-10-19T12:52:12;1.40;;;1.30;;
56770;SDS011;42641;59.794;17.616;2023-10-19T12:54:38;3.10;;;1.50;;
56770;SDS011;42641;59.794;17.616;2023-10-19T12:57:05;2.13;;;1.60;;
56770;SDS011;42641;59.794;17.616;2023-10-19T12:59:35;4.03;;;1.70;;
56770;SDS011;42641;59.794;17.616;2023-10-19T13:02:05;2.20;;;1.70;;
56770;SDS011;42641;59.794;17.616;2023-10-19T13:04:34;2.43;;;1.73;;
56770;SDS011;42641;59.794;17.616;2023-10-19T13:07:02;2.43;;;1.80;;
56770;SDS011;42641;59.794;17.616;2023-10-19T13:09:28;2.30;;;1.30;;
56770;SDS011;42641;59.794;17.616;2023-10-19T13:11:58;2.00;;;1.60;;
56770;SDS011;42641;59.794;17.616;2023-10-19T13:14:28;3.07;;;1.70;;
56770;SDS011;42641;59.794;17.616;2023-10-19T13:16:54;1.73;;;1.63;;
56770;SDS011;42641;59.794;17.616;2023-10-19T13:19:21;1.87;;;1.47;;
56770;SDS011;42641;59.794;17.616;2023-10-19T13:21:51;2.23;;;1.63;;
56770;SDS011;42641;59.794;17.616;2023-10-19T13:24:18;1.90;;;1.40;;
56770;SDS011;42641;59.794;17.616;2023-10-19T13:26:48;1.80;;;1.60;;
56770;SDS011;42641;59.794;17.616;2023-10-19T13:29:14;1.60;;;1.50;;
56770;SDS011;42641;59.794;17.616;2023-10-19T13:31:41;2.00;;;1.40;;
56770;SDS011;42641;59.794;17.616;2023-10-19T13:34:17;3.87;;;1.90;;
56770;SDS011;42641;59.794;17.616;2023-10-19T13:36:44;1.60;;;1.50;;
56770;SDS011;42641;59.794;17.616;2023-10-19T13:39:12;1.50;;;1.40;;
56770;SDS011;42641;59.794;17.616;2023-10-19T13:41:44;4.80;;;1.90;;
56770;SDS011;42641;59.794;17.616;2023-10-19T13:44:10;2.07;;;1.37;;
56770;SDS011;42641;59.794;17.616;2023-10-19T13:46:39;2.77;;;1.67;;
56770;SDS011;42641;59.794;17.616;2023-10-19T13:49:06;2.40;;;1.70;;
56770;SDS011;42641;59.794;17.616;2023-10-19T13:51:32;1.60;;;1.40;;
56770;SDS011;42641;59.794;17.616;2023-10-19T13:53:59;2.63;;;1.93;;
56770;SDS011;42641;59.794;17.616;2023-10-19T13:56:25;2.40;;;1.53;;
56770;SDS011;42641;59.794;17.616;2023-10-19T13:58:52;1.63;;;1.53;;
56770;SDS011;42641;59.794;17.616;2023-10-19T14:01:18;1.67;;;1.50;;
56770;SDS011;42641;59.794;17.616;2023-10-19T14:03:47;1.83;;;1.60;;
56770;SDS011;42641;59.794;17.616;2023-10-19T14:06:14;1.83;;;1.60;;
56770;SDS011;42641;59.794;17.616;2023-10-19T14:08:42;1.73;;;1.60;;
56770;SDS011;42641;59.794;17.616;2023-10-19T14:11:08;2.93;;;1.70;;
56770;SDS011;42641;59.794;17.616;2023-10-19T14:13:34;2.70;;;1.80;;
56770;SDS011;42641;59.794;17.616;2023-10-19T14:16:08;1.70;;;1.40;;
56770;SDS011;42641;59.794;17.616;2023-10-19T14:18:35;2.43;;;1.50;;
56770;SDS011;42641;59.794;17.616;2023-10-19T14:23:42;2.90;;;1.93;;
56770;SDS011;42641;59.794;17.616;2023-10-19T14:26:10;1.40;;;1.30;;
56770;SDS011;42641;59.794;17.616;2023-10-19T14:28:37;1.77;;;1.50;;
56770;SDS011;42641;59.794;17.616;2023-10-19T14:31:04;1.63;;;1.53;;
56770;SDS011;42641;59.794;17.616;2023-10-19T14:33:34;1.80;;;1.30;;
56770;SDS011;42641;59.794;17.616;2023-10-19T14:36:02;1.40;;;1.30;;
56770;SDS011;42641;59.794;17.616;2023-10-19T14:38:30;2.30;;;1.37;;
56770;SDS011;42641;59.794;17.616;2023-10-19T14:40:57;1.83;;;1.60;;
56770;SDS011;42641;59.794;17.616;2023-10-19T14:43:23;1.50;;;1.30;;
56770;SDS011;42641;59.794;17.616;2023-10-19T14:45:55;1.93;;;1.70;;
56770;SDS011;42641;59.794;17.616;2023-10-19T14:48:23;4.47;;;2.40;;
56770;SDS011;42641;59.794;17.616;2023-10-19T14:50:49;2.73;;;1.90;;
56770;SDS011;42641;59.794;17.616;2023-10-19T14:53:17;1.97;;;1.70;;
56770;SDS011;42641;59.794;17.616;2023-10-19T14:55:44;1.93;;;1.60;;
56770;SDS011;42641;59.794;17.616;2023-10-19T14:58:13;2.10;;;1.67;;
56770;SDS011;42641;59.794;17.616;2023-10-19T15:00:39;2.17;;;1.70;;
56770;SDS011;42641;59.794;17.616;2023-10-19T15:03:16;2.63;;;2.20;;